sensor_id;sensor_type;location;lat;lon;timestamp;pressure;altitude;pressure_sealevel;temperature
67822;BMP180;54434;50.096;20.082;2022-09-16T00:02:21;97825.20;;;13.28
67822;BMP180;54434;50.096;20.082;2022-09-16T00:04:58;97827.40;;;13.22
67822;BMP180;54434;50.096;20.082;2022-09-16T00:07:34;97831.60;;;13.20
67822;BMP180;54434;50.096;20.082;2022-09-16T00:10:12;97834.80;;;13.20
67822;BMP180;54434;50.096;20.082;2022-09-16T00:12:48;97839.00;;;13.20
67822;BMP180;54434;50.096;20.082;2022-09-16T00:15:24;97836.40;;;13.20
67822;BMP180;54434;50.096;20.082;2022-09-16T00:18:01;97840.60;;;13.20
67822;BMP180;54434;50.096;20.082;2022-09-16T00:20:37;97847.60;;;13.20
67822;BMP180;54434;50.096;20.082;2022-09-16T00:23:17;97849.60;;;13.20
67822;BMP180;54434;50.096;20.082;2022-09-16T00:25:57;97850.20;;;13.20
67822;BMP180;54434;50.096;20.082;2022-09-16T00:28:34;97849.60;;;13.20
67822;BMP180;54434;50.096;20.082;2022-09-16T00:31:11;97850.40;;;13.20
67822;BMP180;54434;50.096;20.082;2022-09-16T00:33:47;97856.20;;;13.20
67822;BMP180;54434;50.096;20.082;2022-09-16T00:36:24;97865.20;;;13.20
67822;BMP180;54434;50.096;20.082;2022-09-16T00:39:00;97863.80;;;13.20
67822;BMP180;54434;50.096;20.082;2022-09-16T00:41:36;97870.40;;;13.20
67822;BMP180;54434;50.096;20.082;2022-09-16T00:44:58;97870.40;;;13.20
67822;BMP180;54434;50.096;20.082;2022-09-16T00:47:42;97869.40;;;13.20
67822;BMP180;54434;50.096;20.082;2022-09-16T00:50:28;97871.80;;;13.22
67822;BMP180;54434;50.096;20.082;2022-09-16T00:53:11;97870.40;;;13.20
67822;BMP180;54434;50.096;20.082;2022-09-16T00:55:48;97868.20;;;13.20
67822;BMP180;54434;50.096;20.082;2022-09-16T00:58:32;97865.00;;;13.28
67822;BMP180;54434;50.096;20.082;2022-09-16T01:01:10;97864.60;;;13.30
67822;BMP180;54434;50.096;20.082;2022-09-16T01:03:52;97862.80;;;13.28
67822;BMP180;54434;50.096;20.082;2022-09-16T01:06:31;97866.40;;;13.28
67822;BMP180;54434;50.096;20.082;2022-09-16T01:09:10;97867.80;;;13.28
67822;BMP180;54434;50.096;20.082;2022-09-16T01:11:47;97868.60;;;13.30
67822;BMP180;54434;50.096;20.082;2022-09-16T01:14:25;97872.40;;;13.24
67822;BMP180;54434;50.096;20.082;2022-09-16T01:17:48;97870.60;;;13.24
67822;BMP180;54434;50.096;20.082;2022-09-16T01:21:04;97874.20;;;13.20
67822;BMP180;54434;50.096;20.082;2022-09-16T01:24:37;97877.40;;;13.22
67822;BMP180;54434;50.096;20.082;2022-09-16T01:28:10;97880.80;;;13.20
67822;BMP180;54434;50.096;20.082;2022-09-16T01:31:07;97887.80;;;13.20
67822;BMP180;54434;50.096;20.082;2022-09-16T01:34:00;97888.20;;;13.20
67822;BMP180;54434;50.096;20.082;2022-09-16T01:36:51;97890.60;;;13.20
67822;BMP180;54434;50.096;20.082;2022-09-16T01:39:42;97890.00;;;13.20
67822;BMP180;54434;50.096;20.082;2022-09-16T01:42:32;97886.20;;;13.14
67822;BMP180;54434;50.096;20.082;2022-09-16T01:45:18;97884.20;;;13.10
67822;BMP180;54434;50.096;20.082;2022-09-16T01:48:05;97880.00;;;13.10
67822;BMP180;54434;50.096;20.082;2022-09-16T01:50:49;97879.00;;;13.00
67822;BMP180;54434;50.096;20.082;2022-09-16T01:53:35;97883.20;;;13.00
67822;BMP180;54434;50.096;20.082;2022-09-16T01:56:21;97877.40;;;13.00
67822;BMP180;54434;50.096;20.082;2022-09-16T01:59:09;97878.00;;;13.00
67822;BMP180;54434;50.096;20.082;2022-09-16T02:01:54;97877.60;;;13.00
67822;BMP180;54434;50.096;20.082;2022-09-16T02:04:39;97880.60;;;12.96
67822;BMP180;54434;50.096;20.082;2022-09-16T02:07:20;97877.60;;;12.90
67822;BMP180;54434;50.096;20.082;2022-09-16T02:10:04;97878.40;;;12.90
67822;BMP180;54434;50.096;20.082;2022-09-16T02:12:46;97877.60;;;12.90
67822;BMP180;54434;50.096;20.082;2022-09-16T02:15:27;97878.80;;;12.90
67822;BMP180;54434;50.096;20.082;2022-09-16T02:18:14;97878.00;;;12.90
67822;BMP180;54434;50.096;20.082;2022-09-16T02:20:56;97879.40;;;12.90
67822;BMP180;54434;50.096;20.082;2022-09-16T02:23:40;97884.00;;;12.90
67822;BMP180;54434;50.096;20.082;2022-09-16T02:26:22;97882.80;;;12.90
67822;BMP180;54434;50.096;20.082;2022-09-16T02:29:02;97879.40;;;12.90
67822;BMP180;54434;50.096;20.082;2022-09-16T02:31:44;97884.80;;;12.90
67822;BMP180;54434;50.096;20.082;2022-09-16T02:34:31;97881.80;;;12.90
67822;BMP180;54434;50.096;20.082;2022-09-16T02:37:10;97884.80;;;12.90
67822;BMP180;54434;50.096;20.082;2022-09-16T02:39:53;97885.60;;;12.80
67822;BMP180;54434;50.096;20.082;2022-09-16T02:42:32;97881.00;;;12.80
67822;BMP180;54434;50.096;20.082;2022-09-16T02:45:12;97883.20;;;12.80
67822;BMP180;54434;50.096;20.082;2022-09-16T02:48:01;97885.60;;;12.80
67822;BMP180;54434;50.096;20.082;2022-09-16T02:50:51;97885.40;;;12.80
67822;BMP180;54434;50.096;20.082;2022-09-16T02:53:44;97888.80;;;12.80
67822;BMP180;54434;50.096;20.082;2022-09-16T02:56:30;97877.60;;;12.80
67822;BMP180;54434;50.096;20.082;2022-09-16T02:59:11;97891.00;;;12.80
67822;BMP180;54434;50.096;20.082;2022-09-16T03:01:49;97893.00;;;12.80
67822;BMP180;54434;50.096;20.082;2022-09-16T03:04:27;97887.00;;;12.72
67822;BMP180;54434;50.096;20.082;2022-09-16T03:07:07;97882.80;;;12.70
67822;BMP180;54434;50.096;20.082;2022-09-16T03:09:47;97888.60;;;12.70
67822;BMP180;54434;50.096;20.082;2022-09-16T03:12:51;97894.20;;;12.70
67822;BMP180;54434;50.096;20.082;2022-09-16T03:15:59;97895.80;;;12.60
67822;BMP180;54434;50.096;20.082;2022-09-16T03:18:57;97888.80;;;12.60
67822;BMP180;54434;50.096;20.082;2022-09-16T03:21:45;97884.20;;;12.50
67822;BMP180;54434;50.096;20.082;2022-09-16T03:24:38;97884.80;;;12.46
67822;BMP180;54434;50.096;20.082;2022-09-16T03:27:27;97889.80;;;12.40
67822;BMP180;54434;50.096;20.082;2022-09-16T03:30:11;97894.20;;;12.30
67822;BMP180;54434;50.096;20.082;2022-09-16T03:32:51;97897.40;;;12.22
67822;BMP180;54434;50.096;20.082;2022-09-16T03:35:35;97888.60;;;12.20
67822;BMP180;54434;50.096;20.082;2022-09-16T03:38:15;97891.60;;;12.10
67822;BMP180;54434;50.096;20.082;2022-09-16T03:40:53;97889.20;;;12.10
67822;BMP180;54434;50.096;20.082;2022-09-16T03:43:29;97885.00;;;12.00
67822;BMP180;54434;50.096;20.082;2022-09-16T03:46:09;97886.40;;;11.98
67822;BMP180;54434;50.096;20.082;2022-09-16T03:48:46;97881.80;;;11.90
67822;BMP180;54434;50.096;20.082;2022-09-16T03:51:22;97881.60;;;11.90
67822;BMP180;54434;50.096;20.082;2022-09-16T03:53:59;97884.00;;;11.80
67822;BMP180;54434;50.096;20.082;2022-09-16T03:56:35;97884.00;;;11.76
67822;BMP180;54434;50.096;20.082;2022-09-16T03:59:11;97884.00;;;11.70
67822;BMP180;54434;50.096;20.082;2022-09-16T04:01:48;97881.60;;;11.70
67822;BMP180;54434;50.096;20.082;2022-09-16T04:04:24;97880.40;;;11.62
67822;BMP180;54434;50.096;20.082;2022-09-16T04:07:00;97878.60;;;11.60
67822;BMP180;54434;50.096;20.082;2022-09-16T04:09:37;97884.20;;;11.60
67822;BMP180;54434;50.096;20.082;2022-09-16T04:12:13;97883.20;;;11.56
67822;BMP180;54434;50.096;20.082;2022-09-16T04:14:49;97884.60;;;11.50
67822;BMP180;54434;50.096;20.082;2022-09-16T04:17:26;97890.80;;;11.50
67822;BMP180;54434;50.096;20.082;2022-09-16T04:20:04;97898.00;;;11.42
67822;BMP180;54434;50.096;20.082;2022-09-16T04:22:41;97904.20;;;11.40
67822;BMP180;54434;50.096;20.082;2022-09-16T04:25:17;97902.60;;;11.40
67822;BMP180;54434;50.096;20.082;2022-09-16T04:27:54;97901.60;;;11.40
67822;BMP180;54434;50.096;20.082;2022-09-16T04:30:31;97905.60;;;11.40
67822;BMP180;54434;50.096;20.082;2022-09-16T04:33:08;97911.60;;;11.40
67822;BMP180;54434;50.096;20.082;2022-09-16T04:35:45;97914.20;;;11.40
67822;BMP180;54434;50.096;20.082;2022-09-16T04:38:21;97921.00;;;11.40
67822;BMP180;54434;50.096;20.082;2022-09-16T04:41:05;97916.60;;;11.46
67822;BMP180;54434;50.096;20.082;2022-09-16T04:43:42;97912.60;;;11.50
67822;BMP180;54434;50.096;20.082;2022-09-16T04:46:18;97913.00;;;11.50
67822;BMP180;54434;50.096;20.082;2022-09-16T04:48:56;97918.60;;;11.56
67822;BMP180;54434;50.096;20.082;2022-09-16T04:51:33;97922.40;;;11.60
67822;BMP180;54434;50.096;20.082;2022-09-16T04:54:09;97924.40;;;11.70
67822;BMP180;54434;50.096;20.082;2022-09-16T04:56:46;97922.60;;;11.70
67822;BMP180;54434;50.096;20.082;2022-09-16T04:59:22;97920.20;;;11.80
67822;BMP180;54434;50.096;20.082;2022-09-16T05:01:59;97920.40;;;11.90
67822;BMP180;54434;50.096;20.082;2022-09-16T05:04:35;97920.20;;;12.10
67822;BMP180;54434;50.096;20.082;2022-09-16T05:07:11;97925.80;;;12.36
67822;BMP180;54434;50.096;20.082;2022-09-16T05:09:47;97921.40;;;12.68
67822;BMP180;54434;50.096;20.082;2022-09-16T05:12:24;97927.00;;;13.00
67822;BMP180;54434;50.096;20.082;2022-09-16T05:15:00;97938.40;;;13.38
67822;BMP180;54434;50.096;20.082;2022-09-16T05:17:36;97941.40;;;13.76
67822;BMP180;54434;50.096;20.082;2022-09-16T05:20:25;97942.80;;;14.18
67822;BMP180;54434;50.096;20.082;2022-09-16T05:23:01;97948.80;;;14.54
67822;BMP180;54434;50.096;20.082;2022-09-16T05:25:38;97949.60;;;14.94
67822;BMP180;54434;50.096;20.082;2022-09-16T05:28:15;97950.80;;;15.30
67822;BMP180;54434;50.096;20.082;2022-09-16T05:30:52;97948.00;;;15.78
67822;BMP180;54434;50.096;20.082;2022-09-16T05:33:28;97944.60;;;16.24
67822;BMP180;54434;50.096;20.082;2022-09-16T05:36:12;97944.40;;;16.70
67822;BMP180;54434;50.096;20.082;2022-09-16T05:38:49;97950.60;;;17.24
67822;BMP180;54434;50.096;20.082;2022-09-16T05:41:45;97954.40;;;17.74
67822;BMP180;54434;50.096;20.082;2022-09-16T05:44:21;97952.00;;;18.12
67822;BMP180;54434;50.096;20.082;2022-09-16T05:46:58;97949.60;;;18.68
67822;BMP180;54434;50.096;20.082;2022-09-16T05:49:35;97951.40;;;19.10
67822;BMP180;54434;50.096;20.082;2022-09-16T05:52:11;97944.60;;;19.10
67822;BMP180;54434;50.096;20.082;2022-09-16T05:54:47;97944.40;;;19.20
67822;BMP180;54434;50.096;20.082;2022-09-16T05:57:23;97950.80;;;19.20
67822;BMP180;54434;50.096;20.082;2022-09-16T06:00:00;97945.00;;;19.26
67822;BMP180;54434;50.096;20.082;2022-09-16T06:02:43;97947.60;;;19.30
67822;BMP180;54434;50.096;20.082;2022-09-16T06:05:20;97938.40;;;19.30
67822;BMP180;54434;50.096;20.082;2022-09-16T06:07:59;97938.40;;;19.30
67822;BMP180;54434;50.096;20.082;2022-09-16T06:10:39;97928.20;;;19.40
67822;BMP180;54434;50.096;20.082;2022-09-16T06:13:16;97928.60;;;19.40
67822;BMP180;54434;50.096;20.082;2022-09-16T06:15:54;97929.20;;;19.52
67822;BMP180;54434;50.096;20.082;2022-09-16T06:18:32;97927.60;;;19.74
67822;BMP180;54434;50.096;20.082;2022-09-16T06:21:11;97925.00;;;20.10
67822;BMP180;54434;50.096;20.082;2022-09-16T06:23:48;97922.60;;;20.20
67822;BMP180;54434;50.096;20.082;2022-09-16T06:26:27;97926.20;;;20.10
67822;BMP180;54434;50.096;20.082;2022-09-16T06:29:04;97925.00;;;20.20
67822;BMP180;54434;50.096;20.082;2022-09-16T06:31:41;97922.20;;;20.28
67822;BMP180;54434;50.096;20.082;2022-09-16T06:34:19;97928.00;;;20.40
67822;BMP180;54434;50.096;20.082;2022-09-16T06:36:55;97930.80;;;20.80
67822;BMP180;54434;50.096;20.082;2022-09-16T06:39:32;97935.60;;;21.10
67822;BMP180;54434;50.096;20.082;2022-09-16T06:42:10;97933.40;;;21.40
67822;BMP180;54434;50.096;20.082;2022-09-16T06:44:47;97937.40;;;21.78
67822;BMP180;54434;50.096;20.082;2022-09-16T06:47:23;97940.60;;;22.06
67822;BMP180;54434;50.096;20.082;2022-09-16T06:50:01;97944.20;;;22.00
67822;BMP180;54434;50.096;20.082;2022-09-16T06:52:38;97942.00;;;21.90
67822;BMP180;54434;50.096;20.082;2022-09-16T06:55:15;97938.40;;;21.92
67822;BMP180;54434;50.096;20.082;2022-09-16T06:57:51;97937.40;;;21.98
67822;BMP180;54434;50.096;20.082;2022-09-16T07:00:28;97944.80;;;21.90
67822;BMP180;54434;50.096;20.082;2022-09-16T07:03:05;97942.80;;;21.70
67822;BMP180;54434;50.096;20.082;2022-09-16T07:05:41;97946.80;;;21.50
67822;BMP180;54434;50.096;20.082;2022-09-16T07:08:18;97950.60;;;21.26
67822;BMP180;54434;50.096;20.082;2022-09-16T07:11:03;97951.80;;;20.88
67822;BMP180;54434;50.096;20.082;2022-09-16T07:13:41;97951.80;;;20.40
67822;BMP180;54434;50.096;20.082;2022-09-16T07:16:20;97947.20;;;20.20
67822;BMP180;54434;50.096;20.082;2022-09-16T07:18:59;97947.60;;;20.00
67822;BMP180;54434;50.096;20.082;2022-09-16T07:21:35;97952.00;;;19.82
67822;BMP180;54434;50.096;20.082;2022-09-16T07:24:14;97953.60;;;19.70
67822;BMP180;54434;50.096;20.082;2022-09-16T07:26:50;97955.20;;;19.48
67822;BMP180;54434;50.096;20.082;2022-09-16T07:29:27;97958.40;;;19.20
67822;BMP180;54434;50.096;20.082;2022-09-16T07:32:04;97952.80;;;19.08
67822;BMP180;54434;50.096;20.082;2022-09-16T07:34:40;97947.60;;;18.90
67822;BMP180;54434;50.096;20.082;2022-09-16T07:37:16;97952.40;;;18.82
67822;BMP180;54434;50.096;20.082;2022-09-16T07:39:53;97951.60;;;18.90
67822;BMP180;54434;50.096;20.082;2022-09-16T07:42:32;97943.40;;;19.00
67822;BMP180;54434;50.096;20.082;2022-09-16T07:45:10;97935.60;;;19.00
67822;BMP180;54434;50.096;20.082;2022-09-16T07:47:50;97937.80;;;19.18
67822;BMP180;54434;50.096;20.082;2022-09-16T07:50:27;97936.20;;;19.62
67822;BMP180;54434;50.096;20.082;2022-09-16T07:53:03;97935.40;;;20.00
67822;BMP180;54434;50.096;20.082;2022-09-16T07:55:40;97937.80;;;20.30
67822;BMP180;54434;50.096;20.082;2022-09-16T07:58:16;97936.20;;;20.62
67822;BMP180;54434;50.096;20.082;2022-09-16T08:00:53;97938.20;;;21.06
67822;BMP180;54434;50.096;20.082;2022-09-16T08:03:35;97946.40;;;21.40
67822;BMP180;54434;50.096;20.082;2022-09-16T08:06:16;97946.20;;;21.60
67822;BMP180;54434;50.096;20.082;2022-09-16T08:08:54;97945.40;;;21.52
67822;BMP180;54434;50.096;20.082;2022-09-16T08:11:44;97941.60;;;21.12
67822;BMP180;54434;50.096;20.082;2022-09-16T08:14:20;97940.80;;;20.88
67822;BMP180;54434;50.096;20.082;2022-09-16T08:16:56;97943.40;;;20.80
67822;BMP180;54434;50.096;20.082;2022-09-16T08:19:33;97947.40;;;20.80
67822;BMP180;54434;50.096;20.082;2022-09-16T08:22:09;97950.20;;;20.90
67822;BMP180;54434;50.096;20.082;2022-09-16T08:24:46;97947.20;;;20.82
67822;BMP180;54434;50.096;20.082;2022-09-16T08:27:22;97953.00;;;20.70
67822;BMP180;54434;50.096;20.082;2022-09-16T08:29:58;97951.80;;;20.80
67822;BMP180;54434;50.096;20.082;2022-09-16T08:32:34;97949.20;;;20.96
67822;BMP180;54434;50.096;20.082;2022-09-16T08:35:11;97948.20;;;21.00
67822;BMP180;54434;50.096;20.082;2022-09-16T08:37:49;97955.60;;;20.70
67822;BMP180;54434;50.096;20.082;2022-09-16T08:40:30;97963.80;;;20.32
67822;BMP180;54434;50.096;20.082;2022-09-16T08:43:18;97955.20;;;19.88
67822;BMP180;54434;50.096;20.082;2022-09-16T08:46:08;97956.60;;;19.42
67822;BMP180;54434;50.096;20.082;2022-09-16T08:49:02;97957.00;;;19.00
67822;BMP180;54434;50.096;20.082;2022-09-16T08:51:42;97962.00;;;18.70
67822;BMP180;54434;50.096;20.082;2022-09-16T08:54:29;97966.80;;;18.44
67822;BMP180;54434;50.096;20.082;2022-09-16T08:57:12;97965.60;;;18.20
67822;BMP180;54434;50.096;20.082;2022-09-16T08:59:54;97969.20;;;18.00
67822;BMP180;54434;50.096;20.082;2022-09-16T09:02:45;97966.60;;;17.80
67822;BMP180;54434;50.096;20.082;2022-09-16T09:05:35;97969.00;;;17.70
67822;BMP180;54434;50.096;20.082;2022-09-16T09:08:34;97972.20;;;17.50
67822;BMP180;54434;50.096;20.082;2022-09-16T09:11:23;97965.00;;;17.30
67822;BMP180;54434;50.096;20.082;2022-09-16T09:14:31;97963.60;;;17.10
67822;BMP180;54434;50.096;20.082;2022-09-16T09:17:22;97969.20;;;17.08
67822;BMP180;54434;50.096;20.082;2022-09-16T09:20:21;97964.60;;;17.00
67822;BMP180;54434;50.096;20.082;2022-09-16T09:26:36;97964.20;;;16.96
67822;BMP180;54434;50.096;20.082;2022-09-16T09:29:37;97961.20;;;17.00
67822;BMP180;54434;50.096;20.082;2022-09-16T09:32:34;97961.80;;;17.30
67822;BMP180;54434;50.096;20.082;2022-09-16T09:35:46;97959.00;;;17.68
67822;BMP180;54434;50.096;20.082;2022-09-16T09:38:58;97965.60;;;17.94
67822;BMP180;54434;50.096;20.082;2022-09-16T09:41:47;97971.60;;;18.20
67822;BMP180;54434;50.096;20.082;2022-09-16T09:44:51;97961.00;;;18.30
67822;BMP180;54434;50.096;20.082;2022-09-16T09:47:42;97966.40;;;18.30
67822;BMP180;54434;50.096;20.082;2022-09-16T09:50:35;97966.40;;;18.30
67822;BMP180;54434;50.096;20.082;2022-09-16T09:53:24;97963.40;;;18.30
67822;BMP180;54434;50.096;20.082;2022-09-16T09:56:15;97962.20;;;18.30
67822;BMP180;54434;50.096;20.082;2022-09-16T09:59:08;97959.00;;;18.30
67822;BMP180;54434;50.096;20.082;2022-09-16T10:01:54;97960.80;;;18.20
67822;BMP180;54434;50.096;20.082;2022-09-16T10:04:37;97956.40;;;18.20
67822;BMP180;54434;50.096;20.082;2022-09-16T10:07:17;97954.20;;;18.20
67822;BMP180;54434;50.096;20.082;2022-09-16T10:09:59;97960.60;;;18.40
67822;BMP180;54434;50.096;20.082;2022-09-16T10:12:38;97959.60;;;18.70
67822;BMP180;54434;50.096;20.082;2022-09-16T10:15:28;97955.80;;;19.00
67822;BMP180;54434;50.096;20.082;2022-09-16T10:18:18;97951.20;;;19.20
67822;BMP180;54434;50.096;20.082;2022-09-16T10:21:05;97954.80;;;19.40
67822;BMP180;54434;50.096;20.082;2022-09-16T10:23:51;97952.00;;;19.50
67822;BMP180;54434;50.096;20.082;2022-09-16T10:26:29;97955.60;;;19.54
67822;BMP180;54434;50.096;20.082;2022-09-16T10:29:18;97951.60;;;19.60
67822;BMP180;54434;50.096;20.082;2022-09-16T10:31:55;97949.00;;;19.60
67822;BMP180;54434;50.096;20.082;2022-09-16T10:34:39;97943.40;;;19.68
67822;BMP180;54434;50.096;20.082;2022-09-16T10:37:21;97936.40;;;19.70
67822;BMP180;54434;50.096;20.082;2022-09-16T10:40:02;97934.20;;;19.80
67822;BMP180;54434;50.096;20.082;2022-09-16T10:42:46;97935.00;;;19.80
67822;BMP180;54434;50.096;20.082;2022-09-16T10:45:34;97933.80;;;19.90
67822;BMP180;54434;50.096;20.082;2022-09-16T10:48:18;97932.80;;;19.90
67822;BMP180;54434;50.096;20.082;2022-09-16T10:51:03;97931.80;;;19.90
67822;BMP180;54434;50.096;20.082;2022-09-16T10:53:49;97933.80;;;20.00
67822;BMP180;54434;50.096;20.082;2022-09-16T10:56:31;97934.60;;;20.00
67822;BMP180;54434;50.096;20.082;2022-09-16T10:59:12;97945.00;;;20.00
67822;BMP180;54434;50.096;20.082;2022-09-16T11:02:06;97938.60;;;20.00
67822;BMP180;54434;50.096;20.082;2022-09-16T11:05:02;97943.40;;;20.00
67822;BMP180;54434;50.096;20.082;2022-09-16T11:07:56;97942.00;;;20.00
67822;BMP180;54434;50.096;20.082;2022-09-16T11:10:45;97939.80;;;20.00
67822;BMP180;54434;50.096;20.082;2022-09-16T11:13:40;97941.20;;;19.90
67822;BMP180;54434;50.096;20.082;2022-09-16T11:16:52;97938.60;;;19.90
67822;BMP180;54434;50.096;20.082;2022-09-16T11:19:42;97938.80;;;20.00
67822;BMP180;54434;50.096;20.082;2022-09-16T11:22:33;97932.40;;;20.04
67822;BMP180;54434;50.096;20.082;2022-09-16T11:25:37;97934.20;;;20.02
67822;BMP180;54434;50.096;20.082;2022-09-16T11:29:01;97933.60;;;19.90
67822;BMP180;54434;50.096;20.082;2022-09-16T11:31:55;97929.40;;;19.70
67822;BMP180;54434;50.096;20.082;2022-09-16T11:34:57;97923.00;;;19.50
67822;BMP180;54434;50.096;20.082;2022-09-16T11:37:50;97920.20;;;19.40
67822;BMP180;54434;50.096;20.082;2022-09-16T11:40:46;97915.00;;;19.44
67822;BMP180;54434;50.096;20.082;2022-09-16T11:44:28;97917.00;;;19.50
67822;BMP180;54434;50.096;20.082;2022-09-16T11:47:36;97915.60;;;19.50
67822;BMP180;54434;50.096;20.082;2022-09-16T11:50:39;97909.80;;;19.40
67822;BMP180;54434;50.096;20.082;2022-09-16T11:54:03;97921.60;;;19.30
67822;BMP180;54434;50.096;20.082;2022-09-16T11:56:48;97914.40;;;19.00
67822;BMP180;54434;50.096;20.082;2022-09-16T11:59:31;97915.80;;;18.80
67822;BMP180;54434;50.096;20.082;2022-09-16T12:02:24;97917.00;;;18.60
67822;BMP180;54434;50.096;20.082;2022-09-16T12:05:13;97921.80;;;18.40
67822;BMP180;54434;50.096;20.082;2022-09-16T12:08:02;97916.80;;;18.14
67822;BMP180;54434;50.096;20.082;2022-09-16T12:10:48;97914.00;;;17.98
67822;BMP180;54434;50.096;20.082;2022-09-16T12:13:35;97913.20;;;17.80
67822;BMP180;54434;50.096;20.082;2022-09-16T12:16:19;97920.80;;;17.70
67822;BMP180;54434;50.096;20.082;2022-09-16T12:19:12;97919.60;;;17.60
67822;BMP180;54434;50.096;20.082;2022-09-16T12:21:58;97916.80;;;17.50
67822;BMP180;54434;50.096;20.082;2022-09-16T12:24:44;97915.40;;;17.40
67822;BMP180;54434;50.096;20.082;2022-09-16T12:27:42;97920.60;;;17.40
67822;BMP180;54434;50.096;20.082;2022-09-16T12:30:24;97925.20;;;17.30
67822;BMP180;54434;50.096;20.082;2022-09-16T12:33:12;97931.80;;;17.10
67822;BMP180;54434;50.096;20.082;2022-09-16T12:35:57;97936.20;;;16.74
67822;BMP180;54434;50.096;20.082;2022-09-16T12:38:35;97946.20;;;16.40
67822;BMP180;54434;50.096;20.082;2022-09-16T12:41:42;97943.00;;;16.02
67822;BMP180;54434;50.096;20.082;2022-09-16T12:45:02;97937.80;;;15.70
67822;BMP180;54434;50.096;20.082;2022-09-16T12:51:50;97937.00;;;15.02
67822;BMP180;54434;50.096;20.082;2022-09-16T12:58:08;97938.40;;;14.60
67822;BMP180;54434;50.096;20.082;2022-09-16T13:01:01;97933.80;;;14.40
67822;BMP180;54434;50.096;20.082;2022-09-16T13:03:46;97918.20;;;14.30
67822;BMP180;54434;50.096;20.082;2022-09-16T13:06:28;97912.80;;;14.20
67822;BMP180;54434;50.096;20.082;2022-09-16T13:09:23;97906.60;;;14.20
67822;BMP180;54434;50.096;20.082;2022-09-16T13:12:03;97914.60;;;14.12
67822;BMP180;54434;50.096;20.082;2022-09-16T13:15:03;97913.00;;;14.10
67822;BMP180;54434;50.096;20.082;2022-09-16T13:17:42;97903.80;;;14.10
67822;BMP180;54434;50.096;20.082;2022-09-16T13:20:30;97904.20;;;14.10
67822;BMP180;54434;50.096;20.082;2022-09-16T13:23:18;97903.60;;;14.20
67822;BMP180;54434;50.096;20.082;2022-09-16T13:26:04;97900.60;;;14.30
67822;BMP180;54434;50.096;20.082;2022-09-16T13:28:44;97899.00;;;14.40
67822;BMP180;54434;50.096;20.082;2022-09-16T13:31:31;97898.60;;;14.60
67822;BMP180;54434;50.096;20.082;2022-09-16T13:34:19;97895.20;;;14.70
67822;BMP180;54434;50.096;20.082;2022-09-16T13:36:56;97890.00;;;14.76
67822;BMP180;54434;50.096;20.082;2022-09-16T13:39:34;97886.80;;;14.82
67822;BMP180;54434;50.096;20.082;2022-09-16T13:42:23;97886.80;;;14.90
67822;BMP180;54434;50.096;20.082;2022-09-16T13:45:00;97887.60;;;15.00
67822;BMP180;54434;50.096;20.082;2022-09-16T13:47:49;97890.00;;;15.08
67822;BMP180;54434;50.096;20.082;2022-09-16T13:50:28;97885.40;;;15.10
67822;BMP180;54434;50.096;20.082;2022-09-16T13:53:23;97888.40;;;15.10
67822;BMP180;54434;50.096;20.082;2022-09-16T13:56:09;97884.20;;;15.10
67822;BMP180;54434;50.096;20.082;2022-09-16T13:59:07;97878.20;;;15.10
67822;BMP180;54434;50.096;20.082;2022-09-16T14:01:55;97878.40;;;15.10
67822;BMP180;54434;50.096;20.082;2022-09-16T14:04:57;97877.00;;;15.20
67822;BMP180;54434;50.096;20.082;2022-09-16T14:07:48;97875.40;;;15.20
67822;BMP180;54434;50.096;20.082;2022-09-16T14:10:41;97875.20;;;15.24
67822;BMP180;54434;50.096;20.082;2022-09-16T14:13:23;97870.80;;;15.30
67822;BMP180;54434;50.096;20.082;2022-09-16T14:16:13;97871.60;;;15.34
67822;BMP180;54434;50.096;20.082;2022-09-16T14:18:59;97870.00;;;15.40
67822;BMP180;54434;50.096;20.082;2022-09-16T14:21:38;97864.40;;;15.50
67822;BMP180;54434;50.096;20.082;2022-09-16T14:24:21;97862.60;;;15.56
67822;BMP180;54434;50.096;20.082;2022-09-16T14:26:58;97858.60;;;15.60
67822;BMP180;54434;50.096;20.082;2022-09-16T14:29:34;97858.40;;;15.74
67822;BMP180;54434;50.096;20.082;2022-09-16T14:32:15;97854.40;;;15.80
67822;BMP180;54434;50.096;20.082;2022-09-16T14:34:56;97855.20;;;15.90
67822;BMP180;54434;50.096;20.082;2022-09-16T14:37:34;97857.40;;;16.10
67822;BMP180;54434;50.096;20.082;2022-09-16T14:40:20;97850.80;;;16.20
67822;BMP180;54434;50.096;20.082;2022-09-16T14:43:03;97852.60;;;16.38
67822;BMP180;54434;50.096;20.082;2022-09-16T14:45:47;97853.20;;;16.50
67822;BMP180;54434;50.096;20.082;2022-09-16T14:48:37;97848.40;;;16.60
67822;BMP180;54434;50.096;20.082;2022-09-16T14:51:24;97850.80;;;16.60
67822;BMP180;54434;50.096;20.082;2022-09-16T14:54:02;97845.80;;;16.60
67822;BMP180;54434;50.096;20.082;2022-09-16T14:57:00;97842.00;;;16.60
67822;BMP180;54434;50.096;20.082;2022-09-16T14:59:39;97841.00;;;16.66
67822;BMP180;54434;50.096;20.082;2022-09-16T15:02:25;97842.60;;;16.70
67822;BMP180;54434;50.096;20.082;2022-09-16T15:05:22;97842.60;;;16.78
67822;BMP180;54434;50.096;20.082;2022-09-16T15:08:12;97835.20;;;16.80
67822;BMP180;54434;50.096;20.082;2022-09-16T15:10:54;97836.80;;;16.90
67822;BMP180;54434;50.096;20.082;2022-09-16T15:13:38;97836.80;;;16.90
67822;BMP180;54434;50.096;20.082;2022-09-16T15:16:19;97835.60;;;16.90
67822;BMP180;54434;50.096;20.082;2022-09-16T15:19:02;97836.60;;;16.90
67822;BMP180;54434;50.096;20.082;2022-09-16T15:21:43;97835.60;;;16.80
67822;BMP180;54434;50.096;20.082;2022-09-16T15:24:24;97836.80;;;16.80
67822;BMP180;54434;50.096;20.082;2022-09-16T15:27:03;97832.20;;;16.74
67822;BMP180;54434;50.096;20.082;2022-09-16T15:29:55;97829.20;;;16.70
67822;BMP180;54434;50.096;20.082;2022-09-16T15:32:43;97830.20;;;16.70
67822;BMP180;54434;50.096;20.082;2022-09-16T15:35:27;97832.20;;;16.72
67822;BMP180;54434;50.096;20.082;2022-09-16T15:38:21;97831.20;;;16.70
67822;BMP180;54434;50.096;20.082;2022-09-16T15:41:11;97831.20;;;16.70
67822;BMP180;54434;50.096;20.082;2022-09-16T15:43:48;97832.40;;;16.70
67822;BMP180;54434;50.096;20.082;2022-09-16T15:46:26;97828.40;;;16.70